POGODA: Poland

Lotnisko: Katowice-Pyrzowice

METAR KOD: EPKT


METAR: EPKT 220330Z 30019KT 8000 -SHRA FEW002 BKN009 SCT023CB 11/10 Q1007 RESHRA


BLOK
Pogoda METAR
220330Z
Dzien: 22, Godzina: 03:30 UTC.
30019KT
Wiatr z kierunku 300, o predkosci 35 km/h
8000
Widzialnosc pozioma 8000 m.
-SHRA
slab. opady przelotne deszcz
FEW002
1/8 - 2/8 pokrycia nieba, chmurami o podstawie: 60 metrow
BKN009
5/8 - 7/8 pokrycia nieba, chmurami o podstawie: 270 metrow
SCT023CB
3/8 - 4/8 pokrycia nieba, chmurami o podstawie: 690 metrow, cumulonimbus
11/10
Temperatura: powietrze 11°C, punkt rosy 10°C . Wilgotnosc wzgledna 91 %
Q1007
Cisnienie: 1007 hPa
RESHRA
???

Pogoda na innym lotnisku

Pogoda Gdansk-Rebiechowo WEATHER Poland  
Pogoda Katowice WEATHER Poland  
Pogoda Krakow WEATHER Poland  
Pogoda Poznan WEATHER Poland  
Pogoda Rzeszow-Jasionka WEATHER Poland  
Pogoda Szczecin WEATHER Poland  
Pogoda Warszawa-Okecie WEATHER Poland  
Pogoda Wroclaw Ii WEATHER Poland  

Pogoda w inny kraju

Strona startowa

(C) by GREGOR 2007
Ogłoszenia Towarzyskie